sensor_id;sensor_type;location;lat;lon;timestamp;temperature;humidity
21255;DHT22;10785;50.674;17.954;2023-10-31T00:01:46;16.70;99.90
21255;DHT22;10785;50.674;17.954;2023-10-31T00:04:47;16.70;99.90
21255;DHT22;10785;50.674;17.954;2023-10-31T00:07:33;16.70;99.90
21255;DHT22;10785;50.674;17.954;2023-10-31T00:10:14;16.70;99.90
21255;DHT22;10785;50.674;17.954;2023-10-31T00:13:03;16.60;99.90
21255;DHT22;10785;50.674;17.954;2023-10-31T00:15:44;16.60;99.90
21255;DHT22;10785;50.674;17.954;2023-10-31T00:18:41;16.50;99.90
21255;DHT22;10785;50.674;17.954;2023-10-31T00:21:35;16.50;99.90
21255;DHT22;10785;50.674;17.954;2023-10-31T00:24:19;16.40;99.90
21255;DHT22;10785;50.674;17.954;2023-10-31T00:27:05;16.40;99.90
21255;DHT22;10785;50.674;17.954;2023-10-31T00:29:42;16.30;99.90
21255;DHT22;10785;50.674;17.954;2023-10-31T00:32:28;16.20;99.90
21255;DHT22;10785;50.674;17.954;2023-10-31T00:35:11;16.20;99.90
21255;DHT22;10785;50.674;17.954;2023-10-31T00:37:58;16.20;99.90
21255;DHT22;10785;50.674;17.954;2023-10-31T00:40:38;16.10;99.90
21255;DHT22;10785;50.674;17.954;2023-10-31T00:43:20;16.00;99.90
21255;DHT22;10785;50.674;17.954;2023-10-31T00:45:59;16.10;99.90
21255;DHT22;10785;50.674;17.954;2023-10-31T00:48:45;16.10;99.90
21255;DHT22;10785;50.674;17.954;2023-10-31T00:51:29;16.00;99.90
21255;DHT22;10785;50.674;17.954;2023-10-31T00:54:11;15.90;99.90
21255;DHT22;10785;50.674;17.954;2023-10-31T00:56:51;15.90;99.90
21255;DHT22;10785;50.674;17.954;2023-10-31T00:59:35;15.90;99.90
21255;DHT22;10785;50.674;17.954;2023-10-31T01:02:16;15.80;99.90
21255;DHT22;10785;50.674;17.954;2023-10-31T01:05:04;15.80;99.90
21255;DHT22;10785;50.674;17.954;2023-10-31T01:07:52;15.80;99.90
21255;DHT22;10785;50.674;17.954;2023-10-31T01:10:35;15.80;99.90
21255;DHT22;10785;50.674;17.954;2023-10-31T01:13:21;15.80;99.90
21255;DHT22;10785;50.674;17.954;2023-10-31T01:16:05;15.80;99.90
21255;DHT22;10785;50.674;17.954;2023-10-31T01:18:53;15.90;99.90
21255;DHT22;10785;50.674;17.954;2023-10-31T01:21:35;15.90;99.90
21255;DHT22;10785;50.674;17.954;2023-10-31T01:24:19;15.80;99.90
21255;DHT22;10785;50.674;17.954;2023-10-31T01:27:09;15.80;99.90
21255;DHT22;10785;50.674;17.954;2023-10-31T01:29:55;15.80;99.90
21255;DHT22;10785;50.674;17.954;2023-10-31T01:32:34;15.80;99.90
21255;DHT22;10785;50.674;17.954;2023-10-31T01:35:19;15.70;99.90
21255;DHT22;10785;50.674;17.954;2023-10-31T01:38:08;15.60;99.90
21255;DHT22;10785;50.674;17.954;2023-10-31T01:40:50;15.60;99.90
21255;DHT22;10785;50.674;17.954;2023-10-31T01:43:35;15.50;99.90
21255;DHT22;10785;50.674;17.954;2023-10-31T01:46:12;15.60;99.90
21255;DHT22;10785;50.674;17.954;2023-10-31T01:48:57;15.60;99.90
21255;DHT22;10785;50.674;17.954;2023-10-31T01:51:44;15.60;99.90
21255;DHT22;10785;50.674;17.954;2023-10-31T01:54:32;15.70;99.90
21255;DHT22;10785;50.674;17.954;2023-10-31T01:57:22;15.80;99.90
21255;DHT22;10785;50.674;17.954;2023-10-31T02:00:07;15.90;99.90
21255;DHT22;10785;50.674;17.954;2023-10-31T02:02:45;16.00;99.90
21255;DHT22;10785;50.674;17.954;2023-10-31T02:05:27;16.20;99.90
21255;DHT22;10785;50.674;17.954;2023-10-31T02:08:04;16.20;99.90
21255;DHT22;10785;50.674;17.954;2023-10-31T02:10:46;16.40;99.90
21255;DHT22;10785;50.674;17.954;2023-10-31T02:13:35;16.40;99.90
21255;DHT22;10785;50.674;17.954;2023-10-31T02:16:24;16.60;99.90
21255;DHT22;10785;50.674;17.954;2023-10-31T02:19:07;16.60;99.90
21255;DHT22;10785;50.674;17.954;2023-10-31T02:24:45;16.60;99.90
21255;DHT22;10785;50.674;17.954;2023-10-31T02:27:32;16.70;99.90
21255;DHT22;10785;50.674;17.954;2023-10-31T02:30:07;16.70;99.90
21255;DHT22;10785;50.674;17.954;2023-10-31T02:32:51;16.70;99.90
21255;DHT22;10785;50.674;17.954;2023-10-31T02:35:34;16.70;99.90
21255;DHT22;10785;50.674;17.954;2023-10-31T02:38:22;16.60;99.90
21255;DHT22;10785;50.674;17.954;2023-10-31T02:40:59;16.60;99.90
21255;DHT22;10785;50.674;17.954;2023-10-31T02:43:42;16.60;99.90
21255;DHT22;10785;50.674;17.954;2023-10-31T02:46:31;16.60;99.90
21255;DHT22;10785;50.674;17.954;2023-10-31T02:49:10;16.70;99.90
21255;DHT22;10785;50.674;17.954;2023-10-31T02:51:49;16.70;99.90
21255;DHT22;10785;50.674;17.954;2023-10-31T02:54:33;16.70;99.90
21255;DHT22;10785;50.674;17.954;2023-10-31T02:57:09;16.70;99.90
21255;DHT22;10785;50.674;17.954;2023-10-31T03:00:02;16.70;99.90
21255;DHT22;10785;50.674;17.954;2023-10-31T03:02:36;16.70;99.90
21255;DHT22;10785;50.674;17.954;2023-10-31T03:05:06;16.70;99.90
21255;DHT22;10785;50.674;17.954;2023-10-31T03:07:39;16.70;99.90
21255;DHT22;10785;50.674;17.954;2023-10-31T03:10:16;16.70;99.90
21255;DHT22;10785;50.674;17.954;2023-10-31T03:12:59;16.80;99.90
21255;DHT22;10785;50.674;17.954;2023-10-31T03:15:36;16.80;99.90
21255;DHT22;10785;50.674;17.954;2023-10-31T03:18:16;16.90;99.90
21255;DHT22;10785;50.674;17.954;2023-10-31T03:20:56;16.90;99.90
21255;DHT22;10785;50.674;17.954;2023-10-31T03:23:46;17.00;99.90
21255;DHT22;10785;50.674;17.954;2023-10-31T03:26:31;17.10;99.90
21255;DHT22;10785;50.674;17.954;2023-10-31T03:29:06;17.20;98.90
21255;DHT22;10785;50.674;17.954;2023-10-31T03:31:41;17.20;98.00
21255;DHT22;10785;50.674;17.954;2023-10-31T03:34:23;17.20;96.80
21255;DHT22;10785;50.674;17.954;2023-10-31T03:37:05;17.20;96.80
21255;DHT22;10785;50.674;17.954;2023-10-31T03:39:48;17.30;95.90
21255;DHT22;10785;50.674;17.954;2023-10-31T03:42:27;17.30;94.90
21255;DHT22;10785;50.674;17.954;2023-10-31T03:45:06;17.40;94.20
21255;DHT22;10785;50.674;17.954;2023-10-31T03:47:51;17.40;93.50
21255;DHT22;10785;50.674;17.954;2023-10-31T03:50:35;17.40;92.90
21255;DHT22;10785;50.674;17.954;2023-10-31T03:53:15;17.40;92.10
21255;DHT22;10785;50.674;17.954;2023-10-31T03:56:01;17.50;92.00
21255;DHT22;10785;50.674;17.954;2023-10-31T03:58:48;17.50;91.40
21255;DHT22;10785;50.674;17.954;2023-10-31T04:01:34;17.50;91.80
21255;DHT22;10785;50.674;17.954;2023-10-31T04:04:29;17.40;92.20
21255;DHT22;10785;50.674;17.954;2023-10-31T04:07:21;17.40;92.40
21255;DHT22;10785;50.674;17.954;2023-10-31T04:10:02;17.40;92.00
21255;DHT22;10785;50.674;17.954;2023-10-31T04:12:52;17.40;91.70
21255;DHT22;10785;50.674;17.954;2023-10-31T04:15:40;17.40;90.70
21255;DHT22;10785;50.674;17.954;2023-10-31T04:18:20;17.40;90.50
21255;DHT22;10785;50.674;17.954;2023-10-31T04:21:03;17.50;89.60
21255;DHT22;10785;50.674;17.954;2023-10-31T04:23:37;17.50;89.40
21255;DHT22;10785;50.674;17.954;2023-10-31T04:26:22;17.50;89.40
21255;DHT22;10785;50.674;17.954;2023-10-31T04:29:05;17.50;88.50
21255;DHT22;10785;50.674;17.954;2023-10-31T04:31:50;17.50;89.00
21255;DHT22;10785;50.674;17.954;2023-10-31T04:34:42;17.50;88.10
21255;DHT22;10785;50.674;17.954;2023-10-31T04:37:35;17.60;85.90
21255;DHT22;10785;50.674;17.954;2023-10-31T04:40:17;17.60;87.60
21255;DHT22;10785;50.674;17.954;2023-10-31T04:43:02;17.60;85.60
21255;DHT22;10785;50.674;17.954;2023-10-31T04:45:44;17.60;86.30
21255;DHT22;10785;50.674;17.954;2023-10-31T04:48:32;17.60;86.20
21255;DHT22;10785;50.674;17.954;2023-10-31T04:51:07;17.60;86.10
21255;DHT22;10785;50.674;17.954;2023-10-31T04:53:48;17.60;85.70
21255;DHT22;10785;50.674;17.954;2023-10-31T04:56:37;17.60;85.50
21255;DHT22;10785;50.674;17.954;2023-10-31T04:59:21;17.70;83.60
21255;DHT22;10785;50.674;17.954;2023-10-31T05:01:50;17.70;83.30
21255;DHT22;10785;50.674;17.954;2023-10-31T05:04:21;17.70;83.30
21255;DHT22;10785;50.674;17.954;2023-10-31T05:06:51;17.70;85.00
21255;DHT22;10785;50.674;17.954;2023-10-31T05:09:20;17.70;84.40
21255;DHT22;10785;50.674;17.954;2023-10-31T05:11:52;17.60;86.50
21255;DHT22;10785;50.674;17.954;2023-10-31T05:14:21;17.60;88.30
21255;DHT22;10785;50.674;17.954;2023-10-31T05:16:51;17.60;89.00
21255;DHT22;10785;50.674;17.954;2023-10-31T05:19:21;17.50;90.40
21255;DHT22;10785;50.674;17.954;2023-10-31T05:21:53;17.50;90.30
21255;DHT22;10785;50.674;17.954;2023-10-31T05:24:22;17.50;91.10
21255;DHT22;10785;50.674;17.954;2023-10-31T05:26:52;17.50;90.60
21255;DHT22;10785;50.674;17.954;2023-10-31T05:29:22;17.50;90.60
21255;DHT22;10785;50.674;17.954;2023-10-31T05:31:51;17.50;91.40
21255;DHT22;10785;50.674;17.954;2023-10-31T05:34:22;17.50;91.70
21255;DHT22;10785;50.674;17.954;2023-10-31T05:36:51;17.50;91.60
21255;DHT22;10785;50.674;17.954;2023-10-31T05:39:20;17.50;91.50
21255;DHT22;10785;50.674;17.954;2023-10-31T05:41:49;17.50;91.90
21255;DHT22;10785;50.674;17.954;2023-10-31T05:44:19;17.50;92.10
21255;DHT22;10785;50.674;17.954;2023-10-31T05:46:49;17.50;92.70
21255;DHT22;10785;50.674;17.954;2023-10-31T05:49:18;17.40;92.90
21255;DHT22;10785;50.674;17.954;2023-10-31T05:51:51;17.40;94.00
21255;DHT22;10785;50.674;17.954;2023-10-31T05:54:21;17.30;94.50
21255;DHT22;10785;50.674;17.954;2023-10-31T05:56:50;17.30;95.20
21255;DHT22;10785;50.674;17.954;2023-10-31T05:59:19;17.30;96.00
21255;DHT22;10785;50.674;17.954;2023-10-31T06:01:48;17.20;96.30
21255;DHT22;10785;50.674;17.954;2023-10-31T06:04:18;17.20;96.50
21255;DHT22;10785;50.674;17.954;2023-10-31T06:07:00;17.20;97.60
21255;DHT22;10785;50.674;17.954;2023-10-31T06:09:43;17.20;99.00
21255;DHT22;10785;50.674;17.954;2023-10-31T06:12:26;17.10;99.90
21255;DHT22;10785;50.674;17.954;2023-10-31T06:15:14;17.00;99.90
21255;DHT22;10785;50.674;17.954;2023-10-31T06:18:04;16.90;99.90
21255;DHT22;10785;50.674;17.954;2023-10-31T06:20:47;16.80;99.90
21255;DHT22;10785;50.674;17.954;2023-10-31T06:23:40;16.60;99.90
21255;DHT22;10785;50.674;17.954;2023-10-31T06:26:21;16.40;99.90
21255;DHT22;10785;50.674;17.954;2023-10-31T06:28:59;16.10;99.90
21255;DHT22;10785;50.674;17.954;2023-10-31T06:31:57;16.00;99.90
21255;DHT22;10785;50.674;17.954;2023-10-31T06:34:36;15.90;99.90
21255;DHT22;10785;50.674;17.954;2023-10-31T06:37:16;15.80;99.90
21255;DHT22;10785;50.674;17.954;2023-10-31T06:40:06;15.70;99.90
21255;DHT22;10785;50.674;17.954;2023-10-31T06:42:51;15.70;99.90
21255;DHT22;10785;50.674;17.954;2023-10-31T06:45:32;15.60;99.90
21255;DHT22;10785;50.674;17.954;2023-10-31T06:48:20;15.60;99.90
21255;DHT22;10785;50.674;17.954;2023-10-31T06:51:06;15.70;99.90
21255;DHT22;10785;50.674;17.954;2023-10-31T06:53:43;15.70;99.90
21255;DHT22;10785;50.674;17.954;2023-10-31T06:56:17;15.70;99.90
21255;DHT22;10785;50.674;17.954;2023-10-31T06:58:47;15.70;99.90
21255;DHT22;10785;50.674;17.954;2023-10-31T07:01:22;15.80;99.90
21255;DHT22;10785;50.674;17.954;2023-10-31T07:03:54;15.70;99.90
21255;DHT22;10785;50.674;17.954;2023-10-31T07:06:25;15.70;99.90
21255;DHT22;10785;50.674;17.954;2023-10-31T07:09:02;15.70;99.90
21255;DHT22;10785;50.674;17.954;2023-10-31T07:11:35;15.60;99.90
21255;DHT22;10785;50.674;17.954;2023-10-31T07:14:05;15.60;99.90
21255;DHT22;10785;50.674;17.954;2023-10-31T07:16:38;15.60;99.90
21255;DHT22;10785;50.674;17.954;2023-10-31T07:19:12;15.70;99.90
21255;DHT22;10785;50.674;17.954;2023-10-31T07:21:47;15.70;99.90
21255;DHT22;10785;50.674;17.954;2023-10-31T07:24:20;15.70;99.90
21255;DHT22;10785;50.674;17.954;2023-10-31T07:26:50;15.70;99.90
21255;DHT22;10785;50.674;17.954;2023-10-31T07:29:20;15.70;99.90
21255;DHT22;10785;50.674;17.954;2023-10-31T07:31:57;15.70;99.90
21255;DHT22;10785;50.674;17.954;2023-10-31T07:34:29;15.70;99.90
21255;DHT22;10785;50.674;17.954;2023-10-31T07:37:01;15.70;99.90
21255;DHT22;10785;50.674;17.954;2023-10-31T07:39:35;15.80;99.90
21255;DHT22;10785;50.674;17.954;2023-10-31T07:42:10;15.80;99.90
21255;DHT22;10785;50.674;17.954;2023-10-31T07:44:41;15.80;99.90
21255;DHT22;10785;50.674;17.954;2023-10-31T07:47:11;15.80;99.90
21255;DHT22;10785;50.674;17.954;2023-10-31T07:49:46;15.80;99.90
21255;DHT22;10785;50.674;17.954;2023-10-31T07:52:18;15.80;99.90
21255;DHT22;10785;50.674;17.954;2023-10-31T07:54:53;15.80;99.90
21255;DHT22;10785;50.674;17.954;2023-10-31T07:57:24;15.80;99.90
21255;DHT22;10785;50.674;17.954;2023-10-31T07:59:53;15.80;99.90
21255;DHT22;10785;50.674;17.954;2023-10-31T08:02:22;15.80;99.90
21255;DHT22;10785;50.674;17.954;2023-10-31T08:04:51;15.80;99.90
21255;DHT22;10785;50.674;17.954;2023-10-31T08:07:20;15.70;99.90
21255;DHT22;10785;50.674;17.954;2023-10-31T08:09:50;15.70;99.90
21255;DHT22;10785;50.674;17.954;2023-10-31T08:12:19;15.70;99.90
21255;DHT22;10785;50.674;17.954;2023-10-31T08:14:49;15.60;99.90
21255;DHT22;10785;50.674;17.954;2023-10-31T08:17:19;15.60;99.90
21255;DHT22;10785;50.674;17.954;2023-10-31T08:19:51;15.60;99.90
21255;DHT22;10785;50.674;17.954;2023-10-31T08:22:24;15.60;99.90
21255;DHT22;10785;50.674;17.954;2023-10-31T08:24:57;15.60;99.90
21255;DHT22;10785;50.674;17.954;2023-10-31T08:27:31;15.70;99.90
21255;DHT22;10785;50.674;17.954;2023-10-31T08:30:02;15.70;99.90
21255;DHT22;10785;50.674;17.954;2023-10-31T08:32:36;15.80;99.90
21255;DHT22;10785;50.674;17.954;2023-10-31T08:35:07;15.80;99.90
21255;DHT22;10785;50.674;17.954;2023-10-31T08:37:38;15.90;99.90
21255;DHT22;10785;50.674;17.954;2023-10-31T08:40:09;16.00;99.90
21255;DHT22;10785;50.674;17.954;2023-10-31T08:42:43;16.20;99.90
21255;DHT22;10785;50.674;17.954;2023-10-31T08:45:16;16.30;99.90
21255;DHT22;10785;50.674;17.954;2023-10-31T08:47:45;16.40;99.90
21255;DHT22;10785;50.674;17.954;2023-10-31T08:50:15;16.50;99.90
21255;DHT22;10785;50.674;17.954;2023-10-31T08:52:48;16.60;99.90
21255;DHT22;10785;50.674;17.954;2023-10-31T08:55:21;16.60;99.90
21255;DHT22;10785;50.674;17.954;2023-10-31T08:57:55;16.50;99.90
21255;DHT22;10785;50.674;17.954;2023-10-31T09:00:28;16.50;99.90
21255;DHT22;10785;50.674;17.954;2023-10-31T09:02:58;16.60;99.90
21255;DHT22;10785;50.674;17.954;2023-10-31T09:05:29;16.50;99.90
21255;DHT22;10785;50.674;17.954;2023-10-31T09:08:02;16.60;99.90
21255;DHT22;10785;50.674;17.954;2023-10-31T09:10:35;16.50;99.90
21255;DHT22;10785;50.674;17.954;2023-10-31T09:13:10;16.50;99.90
21255;DHT22;10785;50.674;17.954;2023-10-31T09:15:41;16.50;99.90
21255;DHT22;10785;50.674;17.954;2023-10-31T09:18:10;16.40;99.90
21255;DHT22;10785;50.674;17.954;2023-10-31T09:20:44;16.50;99.90
21255;DHT22;10785;50.674;17.954;2023-10-31T09:23:19;16.50;99.90
21255;DHT22;10785;50.674;17.954;2023-10-31T09:25:52;16.50;99.90
21255;DHT22;10785;50.674;17.954;2023-10-31T09:28:24;16.50;99.90
21255;DHT22;10785;50.674;17.954;2023-10-31T09:31:01;16.50;99.90
21255;DHT22;10785;50.674;17.954;2023-10-31T09:33:29;16.50;99.90
21255;DHT22;10785;50.674;17.954;2023-10-31T09:35:58;16.60;99.90
21255;DHT22;10785;50.674;17.954;2023-10-31T09:38:28;16.60;99.90
21255;DHT22;10785;50.674;17.954;2023-10-31T09:40:56;16.70;99.90
21255;DHT22;10785;50.674;17.954;2023-10-31T09:43:25;16.70;99.90
21255;DHT22;10785;50.674;17.954;2023-10-31T09:45:54;16.80;99.90
21255;DHT22;10785;50.674;17.954;2023-10-31T09:48:25;16.80;99.90
21255;DHT22;10785;50.674;17.954;2023-10-31T09:50:55;16.90;99.90
21255;DHT22;10785;50.674;17.954;2023-10-31T09:53:24;16.80;99.90
21255;DHT22;10785;50.674;17.954;2023-10-31T09:55:53;16.70;99.90
21255;DHT22;10785;50.674;17.954;2023-10-31T09:58:25;16.70;99.90
21255;DHT22;10785;50.674;17.954;2023-10-31T10:00:55;16.60;99.90
21255;DHT22;10785;50.674;17.954;2023-10-31T10:03:32;16.60;99.90
21255;DHT22;10785;50.674;17.954;2023-10-31T10:06:06;16.70;99.90
21255;DHT22;10785;50.674;17.954;2023-10-31T10:08:41;16.70;99.90
21255;DHT22;10785;50.674;17.954;2023-10-31T10:11:13;16.60;99.90
21255;DHT22;10785;50.674;17.954;2023-10-31T10:13:45;16.60;99.90
21255;DHT22;10785;50.674;17.954;2023-10-31T10:16:29;16.60;99.90
21255;DHT22;10785;50.674;17.954;2023-10-31T10:19:17;16.70;99.90
21255;DHT22;10785;50.674;17.954;2023-10-31T10:21:51;16.70;99.90
21255;DHT22;10785;50.674;17.954;2023-10-31T10:24:24;16.80;99.90
21255;DHT22;10785;50.674;17.954;2023-10-31T10:26:55;16.80;99.90
21255;DHT22;10785;50.674;17.954;2023-10-31T10:29:27;16.90;99.90
21255;DHT22;10785;50.674;17.954;2023-10-31T10:31:57;17.10;99.90
21255;DHT22;10785;50.674;17.954;2023-10-31T10:34:27;17.10;99.90
21255;DHT22;10785;50.674;17.954;2023-10-31T10:36:59;17.20;99.90
21255;DHT22;10785;50.674;17.954;2023-10-31T10:39:33;17.20;99.90
21255;DHT22;10785;50.674;17.954;2023-10-31T10:42:10;17.20;99.90
21255;DHT22;10785;50.674;17.954;2023-10-31T10:44:44;17.20;99.90
21255;DHT22;10785;50.674;17.954;2023-10-31T10:47:18;17.20;99.90
21255;DHT22;10785;50.674;17.954;2023-10-31T10:49:54;17.30;99.90
21255;DHT22;10785;50.674;17.954;2023-10-31T10:52:41;17.40;99.90
21255;DHT22;10785;50.674;17.954;2023-10-31T10:55:20;17.20;99.90
21255;DHT22;10785;50.674;17.954;2023-10-31T10:57:56;17.30;99.90
21255;DHT22;10785;50.674;17.954;2023-10-31T11:00:34;17.30;99.90
21255;DHT22;10785;50.674;17.954;2023-10-31T11:03:05;17.10;99.90
21255;DHT22;10785;50.674;17.954;2023-10-31T11:05:39;17.10;99.90
21255;DHT22;10785;50.674;17.954;2023-10-31T11:08:10;17.10;99.90
21255;DHT22;10785;50.674;17.954;2023-10-31T11:10:41;17.10;99.90
21255;DHT22;10785;50.674;17.954;2023-10-31T11:13:13;17.10;99.90
21255;DHT22;10785;50.674;17.954;2023-10-31T11:15:43;17.00;99.90
21255;DHT22;10785;50.674;17.954;2023-10-31T11:18:16;17.20;99.90
21255;DHT22;10785;50.674;17.954;2023-10-31T11:20:50;17.20;99.90
21255;DHT22;10785;50.674;17.954;2023-10-31T11:23:20;17.10;99.90
21255;DHT22;10785;50.674;17.954;2023-10-31T11:25:52;17.10;99.90
21255;DHT22;10785;50.674;17.954;2023-10-31T11:28:28;17.10;99.90
21255;DHT22;10785;50.674;17.954;2023-10-31T11:30:59;17.10;99.90
21255;DHT22;10785;50.674;17.954;2023-10-31T11:33:30;17.10;99.90
21255;DHT22;10785;50.674;17.954;2023-10-31T11:36:04;17.00;99.90
21255;DHT22;10785;50.674;17.954;2023-10-31T11:38:35;17.10;99.90
21255;DHT22;10785;50.674;17.954;2023-10-31T11:41:05;17.00;99.90
21255;DHT22;10785;50.674;17.954;2023-10-31T11:43:51;17.00;99.90
21255;DHT22;10785;50.674;17.954;2023-10-31T11:46:23;17.00;99.90
21255;DHT22;10785;50.674;17.954;2023-10-31T11:48:59;16.90;99.90
21255;DHT22;10785;50.674;17.954;2023-10-31T11:51:33;16.90;99.90
21255;DHT22;10785;50.674;17.954;2023-10-31T11:54:08;16.90;99.90
21255;DHT22;10785;50.674;17.954;2023-10-31T11:56:41;16.80;99.90
21255;DHT22;10785;50.674;17.954;2023-10-31T11:59:11;16.80;99.90
21255;DHT22;10785;50.674;17.954;2023-10-31T12:01:48;16.80;99.90
21255;DHT22;10785;50.674;17.954;2023-10-31T12:04:22;16.80;99.90
21255;DHT22;10785;50.674;17.954;2023-10-31T12:07:01;16.70;99.90
21255;DHT22;10785;50.674;17.954;2023-10-31T12:09:47;16.50;99.90
21255;DHT22;10785;50.674;17.954;2023-10-31T12:12:30;16.50;99.90
21255;DHT22;10785;50.674;17.954;2023-10-31T12:15:06;16.30;99.90
21255;DHT22;10785;50.674;17.954;2023-10-31T12:17:36;16.30;99.90
21255;DHT22;10785;50.674;17.954;2023-10-31T12:20:10;16.20;99.90
21255;DHT22;10785;50.674;17.954;2023-10-31T12:22:43;16.20;99.90
21255;DHT22;10785;50.674;17.954;2023-10-31T12:25:14;16.10;99.90
21255;DHT22;10785;50.674;17.954;2023-10-31T12:27:50;16.00;99.90
21255;DHT22;10785;50.674;17.954;2023-10-31T12:30:22;16.00;99.90
21255;DHT22;10785;50.674;17.954;2023-10-31T12:32:57;15.90;99.90
21255;DHT22;10785;50.674;17.954;2023-10-31T12:35:31;15.90;99.90
21255;DHT22;10785;50.674;17.954;2023-10-31T12:38:06;15.90;99.90
21255;DHT22;10785;50.674;17.954;2023-10-31T12:40:43;15.90;99.90
21255;DHT22;10785;50.674;17.954;2023-10-31T12:43:16;16.00;99.90
21255;DHT22;10785;50.674;17.954;2023-10-31T12:45:46;16.00;99.90
21255;DHT22;10785;50.674;17.954;2023-10-31T12:48:17;15.90;99.90
21255;DHT22;10785;50.674;17.954;2023-10-31T12:51:06;15.90;99.90
21255;DHT22;10785;50.674;17.954;2023-10-31T12:53:37;15.80;99.90
21255;DHT22;10785;50.674;17.954;2023-10-31T12:56:09;15.70;99.90
21255;DHT22;10785;50.674;17.954;2023-10-31T12:58:44;15.70;99.90
21255;DHT22;10785;50.674;17.954;2023-10-31T13:01:20;15.60;99.90
21255;DHT22;10785;50.674;17.954;2023-10-31T13:03:49;15.50;99.90
21255;DHT22;10785;50.674;17.954;2023-10-31T13:06:20;15.40;99.90
21255;DHT22;10785;50.674;17.954;2023-10-31T13:08:51;15.40;99.90
21255;DHT22;10785;50.674;17.954;2023-10-31T13:11:21;15.30;99.90
21255;DHT22;10785;50.674;17.954;2023-10-31T13:13:55;15.30;99.90
21255;DHT22;10785;50.674;17.954;2023-10-31T13:16:25;15.20;99.90
21255;DHT22;10785;50.674;17.954;2023-10-31T13:18:57;15.20;99.90
21255;DHT22;10785;50.674;17.954;2023-10-31T13:21:29;15.20;99.90
21255;DHT22;10785;50.674;17.954;2023-10-31T13:24:09;15.20;99.90
21255;DHT22;10785;50.674;17.954;2023-10-31T13:26:44;15.10;99.90
21255;DHT22;10785;50.674;17.954;2023-10-31T13:29:22;15.10;99.90
21255;DHT22;10785;50.674;17.954;2023-10-31T13:31:59;15.00;99.90
21255;DHT22;10785;50.674;17.954;2023-10-31T13:34:35;15.00;99.90
21255;DHT22;10785;50.674;17.954;2023-10-31T13:37:11;15.00;99.90
21255;DHT22;10785;50.674;17.954;2023-10-31T13:39:47;15.00;99.90
21255;DHT22;10785;50.674;17.954;2023-10-31T13:42:26;15.00;99.90
21255;DHT22;10785;50.674;17.954;2023-10-31T13:45:02;15.00;99.90
21255;DHT22;10785;50.674;17.954;2023-10-31T13:47:34;15.00;99.90
21255;DHT22;10785;50.674;17.954;2023-10-31T13:50:07;15.00;99.90
21255;DHT22;10785;50.674;17.954;2023-10-31T13:52:37;14.90;99.90
21255;DHT22;10785;50.674;17.954;2023-10-31T13:55:10;14.80;99.90
21255;DHT22;10785;50.674;17.954;2023-10-31T13:57:42;14.80;99.90
21255;DHT22;10785;50.674;17.954;2023-10-31T14:00:13;14.70;99.90
21255;DHT22;10785;50.674;17.954;2023-10-31T14:02:45;14.70;99.90
21255;DHT22;10785;50.674;17.954;2023-10-31T14:05:15;14.70;99.90
21255;DHT22;10785;50.674;17.954;2023-10-31T14:07:45;14.70;99.90
21255;DHT22;10785;50.674;17.954;2023-10-31T14:10:15;14.70;99.90
21255;DHT22;10785;50.674;17.954;2023-10-31T14:12:47;14.70;99.90
21255;DHT22;10785;50.674;17.954;2023-10-31T14:15:16;14.60;99.90
21255;DHT22;10785;50.674;17.954;2023-10-31T14:17:45;14.60;99.90
21255;DHT22;10785;50.674;17.954;2023-10-31T14:20:14;14.60;99.90
21255;DHT22;10785;50.674;17.954;2023-10-31T14:22:48;14.60;99.90
21255;DHT22;10785;50.674;17.954;2023-10-31T14:25:19;14.50;99.90
21255;DHT22;10785;50.674;17.954;2023-10-31T14:27:49;14.50;99.90
21255;DHT22;10785;50.674;17.954;2023-10-31T14:30:19;14.50;99.90
21255;DHT22;10785;50.674;17.954;2023-10-31T14:32:47;14.50;99.90
21255;DHT22;10785;50.674;17.954;2023-10-31T14:35:18;14.40;99.90
21255;DHT22;10785;50.674;17.954;2023-10-31T14:37:48;14.40;99.90
21255;DHT22;10785;50.674;17.954;2023-10-31T14:40:19;14.40;99.90
21255;DHT22;10785;50.674;17.954;2023-10-31T14:42:49;14.40;99.90
21255;DHT22;10785;50.674;17.954;2023-10-31T14:45:19;14.30;99.90
21255;DHT22;10785;50.674;17.954;2023-10-31T14:47:49;14.30;99.90
21255;DHT22;10785;50.674;17.954;2023-10-31T14:50:20;14.20;99.90
21255;DHT22;10785;50.674;17.954;2023-10-31T14:52:53;14.20;99.90
21255;DHT22;10785;50.674;17.954;2023-10-31T14:55:27;14.10;99.90
21255;DHT22;10785;50.674;17.954;2023-10-31T14:57:57;14.10;99.90
21255;DHT22;10785;50.674;17.954;2023-10-31T15:00:28;14.10;99.90
21255;DHT22;10785;50.674;17.954;2023-10-31T15:02:58;14.10;99.90
21255;DHT22;10785;50.674;17.954;2023-10-31T15:05:28;14.00;99.90
21255;DHT22;10785;50.674;17.954;2023-10-31T15:07:58;14.00;99.90
21255;DHT22;10785;50.674;17.954;2023-10-31T15:10:29;14.00;99.90
21255;DHT22;10785;50.674;17.954;2023-10-31T15:12:58;14.00;99.90
21255;DHT22;10785;50.674;17.954;2023-10-31T15:15:27;13.90;99.90
21255;DHT22;10785;50.674;17.954;2023-10-31T15:17:57;13.90;99.90
21255;DHT22;10785;50.674;17.954;2023-10-31T15:20:25;13.90;99.90
21255;DHT22;10785;50.674;17.954;2023-10-31T15:22:55;13.90;99.90
21255;DHT22;10785;50.674;17.954;2023-10-31T15:25:24;13.80;99.90
21255;DHT22;10785;50.674;17.954;2023-10-31T15:27:55;13.80;99.90
21255;DHT22;10785;50.674;17.954;2023-10-31T15:30:24;13.80;99.90
21255;DHT22;10785;50.674;17.954;2023-10-31T15:32:53;13.80;99.90
21255;DHT22;10785;50.674;17.954;2023-10-31T15:35:23;13.80;99.90
21255;DHT22;10785;50.674;17.954;2023-10-31T15:37:52;13.80;99.90
21255;DHT22;10785;50.674;17.954;2023-10-31T15:40:22;13.70;99.90
21255;DHT22;10785;50.674;17.954;2023-10-31T15:42:51;13.70;99.90
21255;DHT22;10785;50.674;17.954;2023-10-31T15:45:21;13.70;99.90
21255;DHT22;10785;50.674;17.954;2023-10-31T15:47:51;13.70;99.90
21255;DHT22;10785;50.674;17.954;2023-10-31T15:50:21;13.60;99.90
21255;DHT22;10785;50.674;17.954;2023-10-31T15:52:50;13.60;99.90
21255;DHT22;10785;50.674;17.954;2023-10-31T15:55:19;13.60;99.90
21255;DHT22;10785;50.674;17.954;2023-10-31T15:57:48;13.60;99.90
21255;DHT22;10785;50.674;17.954;2023-10-31T16:00:18;13.50;99.90
21255;DHT22;10785;50.674;17.954;2023-10-31T16:02:50;13.50;99.90
21255;DHT22;10785;50.674;17.954;2023-10-31T16:05:24;13.50;99.90
21255;DHT22;10785;50.674;17.954;2023-10-31T16:08:10;13.40;99.90
21255;DHT22;10785;50.674;17.954;2023-10-31T16:10:51;13.40;99.90
21255;DHT22;10785;50.674;17.954;2023-10-31T16:13:36;13.40;99.90